Airfield :
LOGIN :

Register | Disclaimer

   EN    FR    IT 

 










Legend :    VFR   Marginal VFR   IFR   Intensive IFR   Very Intensive IFR
Visi :
Ceiling :
>= 8 km
>= 3000ft
5 to 8 km
1000 to 3000 ft
1500m to 5 km
500 to 1000 ft
800 to 1500m
200 to 500 ft
< 800m
< 200 ft
Symbols :   Thunderstorms  Fog  Heavy snow  Heavy precipitations  Wind > 20 kt
SIGMETs :     Misc.  Thunderstorms  Icing  Turbulence  Mountain Waves  Volcanic Ashes






- Airport Elevation : 580 ft


LFOA - Avord

CURRENT METAR :
  • 150600Z AUTO 21006KT 9999 BKN017 BKN022 OVC054 13/12 Q1008 TEMPO 4000 -DZRA BKN005 OVC015

EXPIRED METARs :
  • 150530Z AUTO 19007KT 9999 OVC015 13/12 Q1008 TEMPO 4000 -DZRA BKN005 OVC015
  • 150500Z AUTO 19005KT 9999 OVC018 13/12 Q1008 TEMPO 4000 -DZRA BKN005 OVC015
  • 150430Z AUTO 17006KT 9999 -RADZ FEW013 BKN020 BKN031 13/12 Q1008
  • 150400Z AUTO 19006KT 8000 -DZ FEW006 BKN038 BKN054 12/12 Q1008
  • 150330Z AUTO 21007KT 9999 BKN005 BKN046 OVC052 13/12 Q1008

TAF AMD TAF LFOA
Valid from the 15 at 04:00 until the 16 at 03:00 UTC


150436Z 1504/1603 22005KT 9999 BKN020 BKN030
TEMPO 1504/1510 4000 -DZRA BKN005 OVC015
BECMG 1510/1512 27010G20KT SCT020TCU
TEMPO 1512/1519 24015G25KT 4000 -SHRA BKN020TCU
BECMG 1519/1521 20007KT NSC
PROB40
TEMPO 1601/1603 4000 RA BKN008 OVC025



MET'MAP, your aeronautical weather chart ! - Copyright ORBIFLY December 2007 - Disclaimer

ORBIFLY MET'MAP TEAM :

Programming & Development : Alexandra Zaïnal
Concept & Development : Baudouin d'Aumeries
Co-Development & Prog : Marc-Olivier Méhu
Technical & hardware support : Manuel Goepfert

Contact : metmap@orbifly.com




SOURCES & CREDITS :

   NOAA